Morgan Reinauer — WCA3764 — position and weather

sailwx.info

Track history (hours):
 
Tides and Currents Weather Stations Pressure Air Temp Water Temp Dewpoint Dewpoint Depression Visibility Wind Speed Wind Dir Waves Ship Positions

Morgan Reinauer

Owner: REINAUER, HAROLD A, STATEN ISLAND, NY. More information available from US FCC via Universal Licensing System and Coast Guard Vessel Documentation Center.

Last reported at 2017-Nov-19 03:18 UTC. Time now 2017-Nov-19 08:35 UTC.
Position N 38°55' W 075°05'.

Length 158 m; draft 6 m.

Type: . MMSI: 366516380.

Date/timePositionNaut miles runAvg speedWind from/ knotsBaromVisibWave heightAir tempDewpointWater temp
2017-Nov-19 03:18N 38°55' W 075°05'2 8.6
2017-Nov-19 03:01N 38°57' W 075°07'4 8.5
2017-Nov-19 02:30N 39°01' W 075°09'4 8.2
2017-Nov-19 02:00N 39°05' W 075°11'4 7.7
2017-Nov-19 01:31N 39°08' W 075°14'4 7.5
2017-Nov-19 01:01N 39°11' W 075°16'4 7.4
2017-Nov-19 00:30N 39°14' W 075°19'4 8.3
2017-Nov-19 00:00N 39°17' W 075°22'4 8.8
2017-Nov-18 23:31N 39°21' W 075°26'5 9.9
2017-Nov-18 23:00N 39°24' W 075°30'510.3
2017-Nov-18 22:30N 39°29' W 075°34'510.3
2017-Nov-18 22:00N 39°34' W 075°33'2 4.8
2017-Nov-18 21:30N 39°35' W 075°36'0 0.0
2017-Nov-18 20:58N 39°35' W 075°36'0 0.0
2017-Nov-18 20:28N 39°35' W 075°36'0 0.0
2017-Nov-18 19:58N 39°35' W 075°36'0 0.0
2017-Nov-18 19:28N 39°35' W 075°36'0 0.0
2017-Nov-18 18:58N 39°35' W 075°36'0 0.0
2017-Nov-18 18:28N 39°35' W 075°36'0 0.0
2017-Nov-18 17:58N 39°35' W 075°36'0 0.0
2017-Nov-18 17:28N 39°35' W 075°36'0 0.0
2017-Nov-18 16:55N 39°35' W 075°36'0 0.0
2017-Nov-18 16:28N 39°35' W 075°36'0 0.0
2017-Nov-18 15:58N 39°35' W 075°36'0 0.0
2017-Nov-18 15:25N 39°35' W 075°36'0 0.0
2017-Nov-18 14:58N 39°35' W 075°36'0 0.0
2017-Nov-18 14:28N 39°35' W 075°36'0 0.0
2017-Nov-18 13:58N 39°35' W 075°36'0 0.0
2017-Nov-18 13:28N 39°35' W 075°36'0 0.0
2017-Nov-18 12:58N 39°35' W 075°36'0 0.0
2017-Nov-18 12:28N 39°35' W 075°36'0 0.0
2017-Nov-18 11:58N 39°35' W 075°36'0 0.0
2017-Nov-18 11:28N 39°35' W 075°36'0 0.0
2017-Nov-18 10:58N 39°35' W 075°36'0 0.0
2017-Nov-18 10:28N 39°35' W 075°36'0 0.0
2017-Nov-18 09:58N 39°35' W 075°36'0 0.0
2017-Nov-18 09:22N 39°35' W 075°36'0 0.0
2017-Nov-18 08:58N 39°35' W 075°36'0 0.0
2017-Nov-18 08:28N 39°35' W 075°36'0 0.0
2017-Nov-18 07:58N 39°35' W 075°36'0 0.0
2017-Nov-18 07:28N 39°35' W 075°36'0 0.0
2017-Nov-18 06:58N 39°35' W 075°36'0 0.0
2017-Nov-18 06:28N 39°35' W 075°36'0 0.0
2017-Nov-18 05:58N 39°35' W 075°36'0 0.0
2017-Nov-18 05:28N 39°35' W 075°36'0 0.0
2017-Nov-18 04:58N 39°35' W 075°36'0 0.0
2017-Nov-18 04:28N 39°35' W 075°36'0 0.0
2017-Nov-18 03:58N 39°35' W 075°36'0 0.0
2017-Nov-18 03:28N 39°35' W 075°36'0 0.0
2017-Nov-18 02:58N 39°35' W 075°36'0 0.0
2017-Nov-18 02:28N 39°35' W 075°36'0 0.0
2017-Nov-18 01:58N 39°35' W 075°36'0 0.0
2017-Nov-18 01:30N 39°35' W 075°36'0 0.0
2017-Nov-18 01:00N 39°35' W 075°36'0 0.6
2017-Nov-18 00:30N 39°35' W 075°35'4 7.4
2017-Nov-18 00:00N 39°32' W 075°33'5 9.3
2017-Nov-17 23:31N 39°27' W 075°33'5 9.5
2017-Nov-17 23:01N 39°24' W 075°29'4 8.9
2017-Nov-17 22:31N 39°20' W 075°25'4 8.4
2017-Nov-17 22:01N 39°17' W 075°22'4 8.4
2017-Nov-17 21:31N 39°14' W 075°18'4 7.8
2017-Nov-17 21:01N 39°11' W 075°16'5 9.1
2017-Nov-17 20:31N 39°07' W 075°13'4 8.5
2017-Nov-17 20:01N 39°03' W 075°10'4 8.5
2017-Nov-17 19:30N 38°59' W 075°08'54 6.9
2017-Nov-17 11:40N 39°29' W 074°10'3 9.4
2017-Nov-17 11:23N 39°31' W 074°08'5 9.5
2017-Nov-17 10:53N 39°35' W 074°05'4 9.6
2017-Nov-17 10:30N 39°38' W 074°03'5 9.6
2017-Nov-17 09:59N 39°43' W 074°00'5 9.4
2017-Nov-17 09:28N 39°47' W 073°58'31 9.9
2017-Nov-17 06:20N 40°18' W 073°54'310.1
2017-Nov-17 06:00N 40°22' W 073°54'510.3
2017-Nov-17 05:30N 40°27' W 073°54'510.4
2017-Nov-17 05:00N 40°31' W 073°59'511.0
2017-Nov-17 04:31N 40°35' W 074°02'510.5
2017-Nov-17 04:00N 40°40' W 074°02'510.3
2017-Nov-17 03:31N 40°45' W 073°58'510.6
2017-Nov-17 03:00N 40°48' W 073°52'4 8.8
2017-Nov-17 02:30N 40°49' W 073°47'5 9.8
2017-Nov-17 02:00N 40°53' W 073°43'42 8.5
2017-Nov-16 21:01N 41°05' W 072°49'1 8.4
2017-Nov-16 20:57N 41°05' W 072°49'4 8.4
2017-Nov-16 20:30N 41°06' W 072°44'4 8.1
2017-Nov-16 20:00N 41°07' W 072°38'4 7.8
2017-Nov-16 19:30N 41°08' W 072°33'4 7.9
2017-Nov-16 19:00N 41°09' W 072°28'4 7.5
2017-Nov-16 18:30N 41°10' W 072°24'4 7.1
2017-Nov-16 18:00N 41°11' W 072°19'4 7.3
2017-Nov-16 17:30N 41°12' W 072°14'4 7.3
2017-Nov-16 17:00N 41°13' W 072°10'4 7.5
2017-Nov-16 16:30N 41°15' W 072°05'37 8.3
2017-Nov-16 12:00N 41°31' W 071°21'6 9.7
2017-Nov-16 11:20N 41°37' W 071°18'3 9.0
2017-Nov-16 11:00N 41°40' W 071°19'4 9.1
2017-Nov-16 10:30N 41°44' W 071°22'4 8.2
2017-Nov-16 09:59N 41°48' W 071°23'0 0.0
2017-Nov-16 03:12N 41°48' W 071°24'0 0.0
2017-Nov-15 17:06N 41°48' W 071°24'0 0.1
2017-Nov-15 17:00N 41°48' W 071°24'0 0.1
2017-Nov-15 16:30N 41°48' W 071°24'2 4.3
2017-Nov-15 16:00N 41°46' W 071°22'4 8.0
2017-Nov-15 15:29N 41°42' W 071°20'4 8.3
2017-Nov-15 15:00N 41°39' W 071°18'139 7.4
2017-Nov-14 20:14N 40°28' W 073°57'2 7.4
2017-Nov-14 19:58N 40°29' W 073°59'12 6.6
2017-Nov-14 18:05N 40°31' W 074°15'2 5.3
2017-Nov-14 17:46N 40°32' W 074°15'0 0.0
2017-Nov-14 02:53N 40°33' W 074°15'13 0.5
2017-Nov-13 01:58N 40°40' W 074°02'0 0.0
2017-Nov-13 01:28N 40°40' W 074°02'0 0.0
2017-Nov-13 00:58N 40°40' W 074°02'0 0.0
2017-Nov-13 00:28N 40°40' W 074°02'0 0.0
2017-Nov-12 23:58N 40°40' W 074°02'0 0.0
2017-Nov-12 23:28N 40°40' W 074°02'0 0.1
2017-Nov-12 22:58N 40°40' W 074°02'0 0.2
2017-Nov-12 22:28N 40°40' W 074°02'0 0.2
2017-Nov-12 21:58N 40°40' W 074°02'0 0.0
2017-Nov-12 21:28N 40°40' W 074°02'0 0.0
2017-Nov-12 20:58N 40°40' W 074°02'0 0.1
2017-Nov-12 20:28N 40°40' W 074°02'0 0.0
2017-Nov-12 19:58N 40°40' W 074°02'0 0.1
2017-Nov-12 19:28N 40°40' W 074°02'0 0.0
2017-Nov-12 18:58N 40°40' W 074°02'0 0.1
2017-Nov-12 18:28N 40°40' W 074°02'0 0.3
2017-Nov-12 17:58N 40°40' W 074°02'0 0.1
2017-Nov-12 17:28N 40°40' W 074°02'0 0.0
2017-Nov-12 16:58N 40°40' W 074°02'0 0.1
2017-Nov-12 16:28N 40°40' W 074°02'0 0.0
2017-Nov-12 15:59N 40°40' W 074°02'1 1.4
2017-Nov-12 15:30N 40°40' W 074°01'1 1.4
2017-Nov-12 15:00N 40°40' W 074°02'0 0.1
2017-Nov-12 14:30N 40°40' W 074°02'0 0.0
2017-Nov-12 14:00N 40°40' W 074°02'0 0.0
2017-Nov-12 13:30N 40°40' W 074°02'1 1.6
2017-Nov-12 13:00N 40°40' W 074°01'1 1.4
2017-Nov-12 12:28N 40°40' W 074°02'0 0.0
2017-Nov-12 11:58N 40°40' W 074°02'0 0.0
2017-Nov-12 11:28N 40°40' W 074°02'0 0.0
2017-Nov-12 10:58N 40°40' W 074°02'0 0.0
2017-Nov-12 10:28N 40°40' W 074°02'0 0.0
2017-Nov-12 09:58N 40°40' W 074°02'0 0.2
2017-Nov-12 09:28N 40°40' W 074°02'0 0.2
2017-Nov-12 08:58N 40°40' W 074°02'0 0.0
2017-Nov-12 08:28N 40°40' W 074°02'0 0.0
2017-Nov-12 07:58N 40°40' W 074°02'0 0.0
2017-Nov-12 07:28N 40°40' W 074°02'0 0.0
2017-Nov-12 06:58N 40°40' W 074°02'0 0.1
2017-Nov-12 06:28N 40°40' W 074°02'0 0.0
2017-Nov-12 05:58N 40°40' W 074°02'0 0.2
2017-Nov-12 05:28N 40°40' W 074°02'0 0.1
2017-Nov-12 04:58N 40°40' W 074°02'0 0.2
2017-Nov-12 04:28N 40°40' W 074°02'0 0.0
2017-Nov-12 03:58N 40°40' W 074°02'0 0.1
2017-Nov-12 03:28N 40°40' W 074°02'0 0.1
2017-Nov-12 02:58N 40°40' W 074°02'0 0.0
2017-Nov-12 02:28N 40°40' W 074°02'0 0.0
2017-Nov-12 01:58N 40°40' W 074°02'0 1.0
2017-Nov-12 01:30N 40°40' W 074°02'510.0
2017-Nov-12 01:00N 40°45' W 073°58'510.7
2017-Nov-12 00:30N 40°48' W 073°52'4 8.8
2017-Nov-12 00:00N 40°49' W 073°47'11 0.3
2017-Nov-10 15:48N 40°56' W 073°36'3 9.1
2017-Nov-10 15:29N 40°55' W 073°39'4 9.0
2017-Nov-10 15:00N 40°52' W 073°44'4 9.0
2017-Nov-10 14:30N 40°48' W 073°47'4 8.5
2017-Nov-10 14:00N 40°48' W 073°53'4 6.8
2017-Nov-10 13:28N 40°46' W 073°57'3 6.8
2017-Nov-10 13:00N 40°43' W 073°58'3 5.9
2017-Nov-10 12:30N 40°41' W 074°01'1 2.5
2017-Nov-10 12:00N 40°40' W 074°02'0 0.0
2017-Nov-10 11:28N 40°40' W 074°02'0 0.0
2017-Nov-10 10:58N 40°40' W 074°02'0 0.0
2017-Nov-10 10:28N 40°40' W 074°02'0 0.0
2017-Nov-10 09:58N 40°40' W 074°02'0 0.1
2017-Nov-10 09:29N 40°40' W 074°02'0 0.1
2017-Nov-10 09:00N 40°40' W 074°02'3 5.9
2017-Nov-10 08:30N 40°39' W 074°05'4 8.3
2017-Nov-10 07:59N 40°39' W 074°11'3 5.1
2017-Nov-10 07:30N 40°36' W 074°12'3 1.0
2017-Nov-10 04:16N 40°33' W 074°15'0 0.0
2017-Nov-10 03:34N 40°33' W 074°14'0 0.0
2017-Nov-10 03:10N 40°33' W 074°15'0 0.0
2017-Nov-10 02:46N 40°33' W 074°15'0 0.0
2017-Nov-10 01:28N 40°33' W 074°15'0 0.0
2017-Nov-10 00:58N 40°33' W 074°15'0 0.0
2017-Nov-10 00:28N 40°33' W 074°14'0 0.0
2017-Nov-09 23:58N 40°33' W 074°15'0 0.0
2017-Nov-09 23:28N 40°33' W 074°14'0 0.0
2017-Nov-09 22:55N 40°33' W 074°15'0 0.0
2017-Nov-09 22:28N 40°33' W 074°15'0 0.0
2017-Nov-09 21:58N 40°33' W 074°14'0 0.0
2017-Nov-09 21:22N 40°33' W 074°15'0 0.0
2017-Nov-09 20:58N 40°33' W 074°15'0 0.0
2017-Nov-09 20:28N 40°33' W 074°15'0 0.0
2017-Nov-09 19:58N 40°33' W 074°15'0 0.0
2017-Nov-09 19:28N 40°33' W 074°15'0 0.0
2017-Nov-09 18:52N 40°33' W 074°15'0 0.0
2017-Nov-09 18:16N 40°33' W 074°15'0 0.0
2017-Nov-09 17:16N 40°33' W 074°15'0 0.0
2017-Nov-09 16:58N 40°33' W 074°14'0 0.0
2017-Nov-09 15:46N 40°33' W 074°14'0 0.0
2017-Nov-09 15:28N 40°33' W 074°15'0 0.0
2017-Nov-09 14:58N 40°33' W 074°15'0 0.0
2017-Nov-09 12:49N 40°33' W 074°15'0 0.0
2017-Nov-09 12:28N 40°33' W 074°15'0 0.0
2017-Nov-09 09:10N 40°33' W 074°15'0 0.0
2017-Nov-09 08:58N 40°33' W 074°14'0 0.0
2017-Nov-09 08:28N 40°33' W 074°15'0 0.0
2017-Nov-09 07:52N 40°33' W 074°15'0 0.0
2017-Nov-09 07:28N 40°33' W 074°15'0 0.0
2017-Nov-09 06:58N 40°33' W 074°15'0 0.0
2017-Nov-09 06:16N 40°33' W 074°15'0 0.0
2017-Nov-09 05:58N 40°33' W 074°14'0 0.0
2017-Nov-09 05:28N 40°33' W 074°15'0 0.0
2017-Nov-09 04:49N 40°33' W 074°15'0 0.0
2017-Nov-09 04:25N 40°33' W 074°15'0 0.0
2017-Nov-09 03:49N 40°33' W 074°15'  
Track history (hours):
 
Tides and Currents Weather Stations Pressure Air Temp Water Temp Dewpoint Dewpoint Depression Visibility Wind Speed Wind Dir Waves Ship Positions

Morgan Reinauer

Owner: REINAUER, HAROLD A, STATEN ISLAND, NY. More information available from US FCC via Universal Licensing System and Coast Guard Vessel Documentation Center.

Last reported at 2017-Nov-19 03:18 UTC. Time now 2017-Nov-19 08:35 UTC.
Position N 38°55' W 075°05'.

Length 158 m; draft 6 m.

Type: . MMSI: 366516380.

Date/timePositionNaut miles runAvg speedWind from/ knotsBaromVisibWave heightAir tempDewpointWater temp
2017-Nov-19 03:18N 38°55' W 075°05'2 8.6
2017-Nov-19 03:01N 38°57' W 075°07'4 8.5
2017-Nov-19 02:30N 39°01' W 075°09'4 8.2
2017-Nov-19 02:00N 39°05' W 075°11'4 7.7
2017-Nov-19 01:31N 39°08' W 075°14'4 7.5
2017-Nov-19 01:01N 39°11' W 075°16'4 7.4
2017-Nov-19 00:30N 39°14' W 075°19'4 8.3
2017-Nov-19 00:00N 39°17' W 075°22'4 8.8
2017-Nov-18 23:31N 39°21' W 075°26'5 9.9
2017-Nov-18 23:00N 39°24' W 075°30'510.3
2017-Nov-18 22:30N 39°29' W 075°34'510.3
2017-Nov-18 22:00N 39°34' W 075°33'2 4.8
2017-Nov-18 21:30N 39°35' W 075°36'0 0.0
2017-Nov-18 20:58N 39°35' W 075°36'0 0.0
2017-Nov-18 20:28N 39°35' W 075°36'0 0.0
2017-Nov-18 19:58N 39°35' W 075°36'0 0.0
2017-Nov-18 19:28N 39°35' W 075°36'0 0.0
2017-Nov-18 18:58N 39°35' W 075°36'0 0.0
2017-Nov-18 18:28N 39°35' W 075°36'0 0.0
2017-Nov-18 17:58N 39°35' W 075°36'0 0.0
2017-Nov-18 17:28N 39°35' W 075°36'0 0.0
2017-Nov-18 16:55N 39°35' W 075°36'0 0.0
2017-Nov-18 16:28N 39°35' W 075°36'0 0.0
2017-Nov-18 15:58N 39°35' W 075°36'0 0.0
2017-Nov-18 15:25N 39°35' W 075°36'0 0.0
2017-Nov-18 14:58N 39°35' W 075°36'0 0.0
2017-Nov-18 14:28N 39°35' W 075°36'0 0.0
2017-Nov-18 13:58N 39°35' W 075°36'0 0.0
2017-Nov-18 13:28N 39°35' W 075°36'0 0.0
2017-Nov-18 12:58N 39°35' W 075°36'0 0.0
2017-Nov-18 12:28N 39°35' W 075°36'0 0.0
2017-Nov-18 11:58N 39°35' W 075°36'0 0.0
2017-Nov-18 11:28N 39°35' W 075°36'0 0.0
2017-Nov-18 10:58N 39°35' W 075°36'0 0.0
2017-Nov-18 10:28N 39°35' W 075°36'0 0.0
2017-Nov-18 09:58N 39°35' W 075°36'0 0.0
2017-Nov-18 09:22N 39°35' W 075°36'0 0.0
2017-Nov-18 08:58N 39°35' W 075°36'0 0.0
2017-Nov-18 08:28N 39°35' W 075°36'0 0.0
2017-Nov-18 07:58N 39°35' W 075°36'0 0.0
2017-Nov-18 07:28N 39°35' W 075°36'0 0.0
2017-Nov-18 06:58N 39°35' W 075°36'0 0.0
2017-Nov-18 06:28N 39°35' W 075°36'0 0.0
2017-Nov-18 05:58N 39°35' W 075°36'0 0.0
2017-Nov-18 05:28N 39°35' W 075°36'0 0.0
2017-Nov-18 04:58N 39°35' W 075°36'0 0.0
2017-Nov-18 04:28N 39°35' W 075°36'0 0.0
2017-Nov-18 03:58N 39°35' W 075°36'0 0.0
2017-Nov-18 03:28N 39°35' W 075°36'0 0.0
2017-Nov-18 02:58N 39°35' W 075°36'0 0.0
2017-Nov-18 02:28N 39°35' W 075°36'0 0.0
2017-Nov-18 01:58N 39°35' W 075°36'0 0.0
2017-Nov-18 01:30N 39°35' W 075°36'0 0.0
2017-Nov-18 01:00N 39°35' W 075°36'0 0.6
2017-Nov-18 00:30N 39°35' W 075°35'4 7.4
2017-Nov-18 00:00N 39°32' W 075°33'5 9.3
2017-Nov-17 23:31N 39°27' W 075°33'5 9.5
2017-Nov-17 23:01N 39°24' W 075°29'4 8.9
2017-Nov-17 22:31N 39°20' W 075°25'4 8.4
2017-Nov-17 22:01N 39°17' W 075°22'4 8.4
2017-Nov-17 21:31N 39°14' W 075°18'4 7.8
2017-Nov-17 21:01N 39°11' W 075°16'5 9.1
2017-Nov-17 20:31N 39°07' W 075°13'4 8.5
2017-Nov-17 20:01N 39°03' W 075°10'4 8.5
2017-Nov-17 19:30N 38°59' W 075°08'54 6.9
2017-Nov-17 11:40N 39°29' W 074°10'3 9.4
2017-Nov-17 11:23N 39°31' W 074°08'5 9.5
2017-Nov-17 10:53N 39°35' W 074°05'4 9.6
2017-Nov-17 10:30N 39°38' W 074°03'5 9.6
2017-Nov-17 09:59N 39°43' W 074°00'5 9.4
2017-Nov-17 09:28N 39°47' W 073°58'31 9.9
2017-Nov-17 06:20N 40°18' W 073°54'310.1
2017-Nov-17 06:00N 40°22' W 073°54'510.3
2017-Nov-17 05:30N 40°27' W 073°54'510.4
2017-Nov-17 05:00N 40°31' W 073°59'511.0
2017-Nov-17 04:31N 40°35' W 074°02'510.5
2017-Nov-17 04:00N 40°40' W 074°02'510.3
2017-Nov-17 03:31N 40°45' W 073°58'510.6
2017-Nov-17 03:00N 40°48' W 073°52'4 8.8
2017-Nov-17 02:30N 40°49' W 073°47'5 9.8
2017-Nov-17 02:00N 40°53' W 073°43'42 8.5
2017-Nov-16 21:01N 41°05' W 072°49'1 8.4
2017-Nov-16 20:57N 41°05' W 072°49'4 8.4
2017-Nov-16 20:30N 41°06' W 072°44'4 8.1
2017-Nov-16 20:00N 41°07' W 072°38'4 7.8
2017-Nov-16 19:30N 41°08' W 072°33'4 7.9
2017-Nov-16 19:00N 41°09' W 072°28'4 7.5
2017-Nov-16 18:30N 41°10' W 072°24'4 7.1
2017-Nov-16 18:00N 41°11' W 072°19'4 7.3
2017-Nov-16 17:30N 41°12' W 072°14'4 7.3
2017-Nov-16 17:00N 41°13' W 072°10'4 7.5
2017-Nov-16 16:30N 41°15' W 072°05'37 8.3
2017-Nov-16 12:00N 41°31' W 071°21'6 9.7
2017-Nov-16 11:20N 41°37' W 071°18'3 9.0
2017-Nov-16 11:00N 41°40' W 071°19'4 9.1
2017-Nov-16 10:30N 41°44' W 071°22'4 8.2
2017-Nov-16 09:59N 41°48' W 071°23'0 0.0
2017-Nov-16 03:12N 41°48' W 071°24'0 0.0
2017-Nov-15 17:06N 41°48' W 071°24'0 0.1
2017-Nov-15 17:00N 41°48' W 071°24'0 0.1
2017-Nov-15 16:30N 41°48' W 071°24'2 4.3
2017-Nov-15 16:00N 41°46' W 071°22'4 8.0
2017-Nov-15 15:29N 41°42' W 071°20'4 8.3
2017-Nov-15 15:00N 41°39' W 071°18'139 7.4
2017-Nov-14 20:14N 40°28' W 073°57'2 7.4
2017-Nov-14 19:58N 40°29' W 073°59'12 6.6
2017-Nov-14 18:05N 40°31' W 074°15'2 5.3
2017-Nov-14 17:46N 40°32' W 074°15'0 0.0
2017-Nov-14 02:53N 40°33' W 074°15'13 0.5
2017-Nov-13 01:58N 40°40' W 074°02'0 0.0
2017-Nov-13 01:28N 40°40' W 074°02'0 0.0
2017-Nov-13 00:58N 40°40' W 074°02'0 0.0
2017-Nov-13 00:28N 40°40' W 074°02'0 0.0
2017-Nov-12 23:58N 40°40' W 074°02'0 0.0
2017-Nov-12 23:28N 40°40' W 074°02'0 0.1
2017-Nov-12 22:58N 40°40' W 074°02'0 0.2
2017-Nov-12 22:28N 40°40' W 074°02'0 0.2
2017-Nov-12 21:58N 40°40' W 074°02'0 0.0
2017-Nov-12 21:28N 40°40' W 074°02'0 0.0
2017-Nov-12 20:58N 40°40' W 074°02'0 0.1
2017-Nov-12 20:28N 40°40' W 074°02'0 0.0
2017-Nov-12 19:58N 40°40' W 074°02'0 0.1
2017-Nov-12 19:28N 40°40' W 074°02'0 0.0
2017-Nov-12 18:58N 40°40' W 074°02'0 0.1
2017-Nov-12 18:28N 40°40' W 074°02'0 0.3
2017-Nov-12 17:58N 40°40' W 074°02'0 0.1
2017-Nov-12 17:28N 40°40' W 074°02'0 0.0
2017-Nov-12 16:58N 40°40' W 074°02'0 0.1
2017-Nov-12 16:28N 40°40' W 074°02'0 0.0
2017-Nov-12 15:59N 40°40' W 074°02'1 1.4
2017-Nov-12 15:30N 40°40' W 074°01'1 1.4
2017-Nov-12 15:00N 40°40' W 074°02'0 0.1
2017-Nov-12 14:30N 40°40' W 074°02'0 0.0
2017-Nov-12 14:00N 40°40' W 074°02'0 0.0
2017-Nov-12 13:30N 40°40' W 074°02'1 1.6
2017-Nov-12 13:00N 40°40' W 074°01'1 1.4
2017-Nov-12 12:28N 40°40' W 074°02'0 0.0
2017-Nov-12 11:58N 40°40' W 074°02'0 0.0
2017-Nov-12 11:28N 40°40' W 074°02'0 0.0
2017-Nov-12 10:58N 40°40' W 074°02'0 0.0
2017-Nov-12 10:28N 40°40' W 074°02'0 0.0
2017-Nov-12 09:58N 40°40' W 074°02'0 0.2
2017-Nov-12 09:28N 40°40' W 074°02'0 0.2
2017-Nov-12 08:58N 40°40' W 074°02'0 0.0
2017-Nov-12 08:28N 40°40' W 074°02'0 0.0
2017-Nov-12 07:58N 40°40' W 074°02'0 0.0
2017-Nov-12 07:28N 40°40' W 074°02'0 0.0
2017-Nov-12 06:58N 40°40' W 074°02'0 0.1
2017-Nov-12 06:28N 40°40' W 074°02'0 0.0
2017-Nov-12 05:58N 40°40' W 074°02'0 0.2
2017-Nov-12 05:28N 40°40' W 074°02'0 0.1
2017-Nov-12 04:58N 40°40' W 074°02'0 0.2
2017-Nov-12 04:28N 40°40' W 074°02'0 0.0
2017-Nov-12 03:58N 40°40' W 074°02'0 0.1
2017-Nov-12 03:28N 40°40' W 074°02'0 0.1
2017-Nov-12 02:58N 40°40' W 074°02'0 0.0
2017-Nov-12 02:28N 40°40' W 074°02'0 0.0
2017-Nov-12 01:58N 40°40' W 074°02'0 1.0
2017-Nov-12 01:30N 40°40' W 074°02'510.0
2017-Nov-12 01:00N 40°45' W 073°58'510.7
2017-Nov-12 00:30N 40°48' W 073°52'4 8.8
2017-Nov-12 00:00N 40°49' W 073°47'11 0.3
2017-Nov-10 15:48N 40°56' W 073°36'3 9.1
2017-Nov-10 15:29N 40°55' W 073°39'4 9.0
2017-Nov-10 15:00N 40°52' W 073°44'4 9.0
2017-Nov-10 14:30N 40°48' W 073°47'4 8.5
2017-Nov-10 14:00N 40°48' W 073°53'4 6.8
2017-Nov-10 13:28N 40°46' W 073°57'3 6.8
2017-Nov-10 13:00N 40°43' W 073°58'3 5.9
2017-Nov-10 12:30N 40°41' W 074°01'1 2.5
2017-Nov-10 12:00N 40°40' W 074°02'0 0.0
2017-Nov-10 11:28N 40°40' W 074°02'0 0.0
2017-Nov-10 10:58N 40°40' W 074°02'0 0.0
2017-Nov-10 10:28N 40°40' W 074°02'0 0.0
2017-Nov-10 09:58N 40°40' W 074°02'0 0.1
2017-Nov-10 09:29N 40°40' W 074°02'0 0.1
2017-Nov-10 09:00N 40°40' W 074°02'3 5.9
2017-Nov-10 08:30N 40°39' W 074°05'4 8.3
2017-Nov-10 07:59N 40°39' W 074°11'3 5.1
2017-Nov-10 07:30N 40°36' W 074°12'3 1.0
2017-Nov-10 04:16N 40°33' W 074°15'0 0.0
2017-Nov-10 03:34N 40°33' W 074°14'0 0.0
2017-Nov-10 03:10N 40°33' W 074°15'0 0.0
2017-Nov-10 02:46N 40°33' W 074°15'0 0.0
2017-Nov-10 01:28N 40°33' W 074°15'0 0.0
2017-Nov-10 00:58N 40°33' W 074°15'0 0.0
2017-Nov-10 00:28N 40°33' W 074°14'0 0.0
2017-Nov-09 23:58N 40°33' W 074°15'0 0.0
2017-Nov-09 23:28N 40°33' W 074°14'0 0.0
2017-Nov-09 22:55N 40°33' W 074°15'0 0.0
2017-Nov-09 22:28N 40°33' W 074°15'0 0.0
2017-Nov-09 21:58N 40°33' W 074°14'0 0.0
2017-Nov-09 21:22N 40°33' W 074°15'0 0.0
2017-Nov-09 20:58N 40°33' W 074°15'0 0.0
2017-Nov-09 20:28N 40°33' W 074°15'0 0.0
2017-Nov-09 19:58N 40°33' W 074°15'0 0.0
2017-Nov-09 19:28N 40°33' W 074°15'0 0.0
2017-Nov-09 18:52N 40°33' W 074°15'0 0.0
2017-Nov-09 18:16N 40°33' W 074°15'0 0.0
2017-Nov-09 17:16N 40°33' W 074°15'0 0.0
2017-Nov-09 16:58N 40°33' W 074°14'0 0.0
2017-Nov-09 15:46N 40°33' W 074°14'0 0.0
2017-Nov-09 15:28N 40°33' W 074°15'0 0.0
2017-Nov-09 14:58N 40°33' W 074°15'0 0.0
2017-Nov-09 12:49N 40°33' W 074°15'0 0.0
2017-Nov-09 12:28N 40°33' W 074°15'0 0.0
2017-Nov-09 09:10N 40°33' W 074°15'0 0.0
2017-Nov-09 08:58N 40°33' W 074°14'0 0.0
2017-Nov-09 08:28N 40°33' W 074°15'0 0.0
2017-Nov-09 07:52N 40°33' W 074°15'0 0.0
2017-Nov-09 07:28N 40°33' W 074°15'0 0.0
2017-Nov-09 06:58N 40°33' W 074°15'0 0.0
2017-Nov-09 06:16N 40°33' W 074°15'0 0.0
2017-Nov-09 05:58N 40°33' W 074°14'0 0.0
2017-Nov-09 05:28N 40°33' W 074°15'0 0.0
2017-Nov-09 04:49N 40°33' W 074°15'0 0.0
2017-Nov-09 04:25N 40°33' W 074°15'0 0.0
2017-Nov-09 03:49N 40°33' W 074°15'  

Dump ship's entire track history